Time;durP1;ratioP1;P1;durP2;ratioP2;P2;SDS_P1;SDS_P2;PMS_P1;PMS_P2;Temp;Humidity;BMP_temperature;BMP_pressure;BME280_temperature;BME280_humidity;BME280_pressure;Samples;Min_cycle;Max_cycle;Signal;HPM_P1;HPM_P2
2022/11/29 00:01:47;;;;;;;12.05;4.25;;;;;;;7.34;100.00;100591.59;4913614;29;20051;-90
2022/11/29 00:04:16;;;;;;;20.60;4.95;;;;;;;7.33;100.00;100597.78;4927129;29;20031;-90
2022/11/29 00:07:04;;;;;;;16.38;4.22;;;;;;;7.31;100.00;100603.16;4933385;29;20106;-90
2022/11/29 00:09:51;;;;;;;17.70;4.57;;;;;;;7.35;100.00;100608.19;4926960;29;20115;-90
2022/11/29 00:12:20;;;;;;;17.27;4.07;;;;;;;7.38;100.00;100610.56;4905727;29;20047;-90
2022/11/29 00:14:49;;;;;;;12.65;3.40;;;;;;;7.40;100.00;100608.66;4935952;29;20601;-90
2022/11/29 00:17:17;;;;;;;11.98;3.35;;;;;;;7.38;100.00;100615.81;4901033;29;20928;-90
2022/11/29 00:19:46;;;;;;;15.32;4.97;;;;;;;7.42;100.00;100619.91;4903746;29;20581;-91
2022/11/29 00:22:13;;;;;;;14.13;4.07;;;;;;;7.41;100.00;100608.53;4900425;29;20039;-91
2022/11/29 00:24:42;;;;;;;12.57;2.97;;;;;;;7.46;100.00;100616.06;4895344;29;20047;-90
2022/11/29 00:27:10;;;;;;;12.82;4.38;;;;;;;7.45;100.00;100607.34;4931823;29;20036;-91
2022/11/29 00:29:39;;;;;;;9.85;3.67;;;;;;;7.49;100.00;100592.16;4900904;29;20024;-91
2022/11/29 00:32:07;;;;;;;12.35;4.45;;;;;;;7.49;100.00;100593.94;4915011;29;20039;-90
2022/11/29 00:34:35;;;;;;;12.15;4.55;;;;;;;7.51;100.00;100592.03;4905533;29;20154;-90
2022/11/29 00:37:05;;;;;;;17.40;6.03;;;;;;;7.52;100.00;100593.69;4882333;29;20039;-90
2022/11/29 00:39:35;;;;;;;20.42;4.65;;;;;;;7.50;100.00;100593.81;4881181;29;20032;-90
2022/11/29 00:42:03;;;;;;;16.67;3.67;;;;;;;7.48;100.00;100595.75;4895551;29;20480;-91
2022/11/29 00:44:32;;;;;;;23.05;3.47;;;;;;;7.46;100.00;100589.78;4884566;29;20051;-90
2022/11/29 00:47:00;;;;;;;17.02;4.38;;;;;;;7.44;100.00;100591.69;4883475;29;20099;-90
2022/11/29 00:49:27;;;;;;;9.88;2.97;;;;;;;7.47;100.00;100588.00;4888184;29;20512;-90
2022/11/29 00:51:55;;;;;;;13.10;3.33;;;;;;;7.44;100.00;100579.38;4879102;29;20418;-90
2022/11/29 00:54:23;;;;;;;15.88;3.72;;;;;;;7.49;100.00;100578.16;4898258;29;20067;-91
2022/11/29 00:56:51;;;;;;;15.50;3.78;;;;;;;7.48;100.00;100571.25;4895672;29;20031;-91
2022/11/29 00:59:19;;;;;;;13.95;4.43;;;;;;;7.45;100.00;100575.78;4878239;29;20036;-90
2022/11/29 01:01:47;;;;;;;15.48;3.75;;;;;;;7.43;100.00;100577.72;4879085;29;20047;-90
2022/11/29 01:04:15;;;;;;;14.43;3.25;;;;;;;7.45;100.00;100585.47;4881278;29;20086;-91
2022/11/29 01:06:43;;;;;;;14.80;3.33;;;;;;;7.45;100.00;100590.75;4909069;29;20067;-91
2022/11/29 01:09:12;;;;;;;12.35;3.92;;;;;;;7.46;100.00;100579.25;4876457;29;20426;-90
2022/11/29 01:11:40;;;;;;;12.68;3.45;;;;;;;7.44;100.00;100584.63;4879927;29;20055;-91
2022/11/29 01:14:11;;;;;;;12.70;3.50;;;;;;;7.48;100.00;100593.13;4879927;29;20397;-90
2022/11/29 01:16:41;;;;;;;12.25;2.90;;;;;;;7.47;100.00;100588.81;4891189;29;20480;-91
2022/11/29 01:19:11;;;;;;;8.20;2.85;;;;;;;7.47;100.00;100590.63;4898291;29;20437;-90
2022/11/29 01:21:41;;;;;;;13.13;3.50;;;;;;;7.47;100.00;100593.25;4886811;29;20497;-91
2022/11/29 01:24:10;;;;;;;9.95;3.22;;;;;;;7.47;100.00;100591.44;4891316;29;20083;-90
2022/11/29 01:26:39;;;;;;;13.25;3.63;;;;;;;7.47;100.00;100588.00;4885879;29;20032;-90
2022/11/29 01:29:07;;;;;;;9.80;3.08;;;;;;;7.46;100.00;100579.25;4886385;29;20054;-90
2022/11/29 01:31:35;;;;;;;14.20;3.45;;;;;;;7.48;100.00;100581.75;4884141;29;20063;-90
2022/11/29 01:34:04;;;;;;;15.30;3.35;;;;;;;7.46;100.00;100579.25;4903004;29;20050;-90
2022/11/29 01:36:34;;;;;;;13.35;3.65;;;;;;;7.45;100.00;100577.59;4900540;29;20079;-91
2022/11/29 01:39:06;;;;;;;11.48;2.67;;;;;;;7.42;100.00;100583.91;4918257;29;20059;-90
2022/11/29 01:41:37;;;;;;;17.65;3.47;;;;;;;7.40;100.00;100591.09;4901838;29;20368;-91
2022/11/29 01:44:28;;;;;;;14.02;3.22;;;;;;;7.37;100.00;100599.22;4890612;29;20142;-91
2022/11/29 01:46:57;;;;;;;12.90;3.42;;;;;;;7.37;100.00;100599.22;4915851;29;20043;-91
2022/11/29 01:49:35;;;;;;;16.98;3.17;;;;;;;7.40;100.00;100595.50;4897885;29;20038;-90
2022/11/29 01:52:09;;;;;;;7.45;2.40;;;;;;;7.39;100.00;100592.03;4929945;29;20027;-90
2022/11/29 01:54:42;;;;;;;11.10;3.15;;;;;;;7.41;100.00;100600.66;4902626;29;20032;-90
2022/11/29 01:57:10;;;;;;;6.82;1.95;;;;;;;7.42;100.00;100589.16;4887530;29;20074;-90
2022/11/29 01:59:44;;;;;;;8.02;3.33;;;;;;;7.47;100.00;100601.13;4898549;29;20036;-90
2022/11/29 02:02:20;;;;;;;12.02;3.13;;;;;;;7.47;100.00;100591.44;4872468;29;20042;-91
2022/11/29 02:04:51;;;;;;;14.40;3.78;;;;;;;7.34;100.00;100596.00;4922293;29;20118;-88
2022/11/29 02:07:20;;;;;;;17.48;4.20;;;;;;;7.18;100.00;100597.19;4872631;29;20126;-90
2022/11/29 02:09:49;;;;;;;14.57;3.90;;;;;;;7.14;100.00;100595.72;4903545;29;20043;-90
2022/11/29 02:12:26;;;;;;;11.73;3.53;;;;;;;7.19;100.00;100606.72;4904124;29;20095;-90
2022/11/29 02:15:14;;;;;;;15.95;3.80;;;;;;;7.22;100.00;100601.25;4927106;29;20039;-90
2022/11/29 02:18:41;;;;;;;11.10;3.35;;;;;;;7.27;100.00;100606.13;4905246;29;20043;-90
2022/11/29 02:21:30;;;;;;;11.00;4.07;;;;;;;7.31;100.00;100613.66;4851784;29;20060;-95
2022/11/29 02:24:23;;;;;;;7.45;2.95;;;;;;;7.35;100.00;100622.16;4843744;29;20029;-95
2022/11/29 02:27:11;;;;;;;14.05;3.33;;;;;;;7.39;100.00;100623.59;4900105;29;20048;-90
2022/11/29 02:30:18;;;;;;;11.50;3.40;;;;;;;7.43;100.00;100629.47;4930240;29;20688;-90
2022/11/29 02:33:42;;;;;;;11.35;3.28;;;;;;;7.43;100.00;100622.41;4921600;29;20423;-89
2022/11/29 02:36:45;;;;;;;8.10;2.90;;;;;;;7.43;100.00;100621.56;4843858;29;20072;-90
2022/11/29 02:39:24;;;;;;;4.40;2.33;;;;;;;7.43;100.00;100626.84;4901706;29;20031;-90
2022/11/29 02:42:16;;;;;;;7.80;3.17;;;;;;;7.45;100.00;100624.94;4916869;29;20046;-90
2022/11/29 02:44:59;;;;;;;9.60;2.65;;;;;;;7.46;100.00;100634.47;4894323;29;20027;-90
2022/11/29 02:47:36;;;;;;;15.02;3.13;;;;;;;7.45;100.00;100631.00;4919194;29;20034;-90
2022/11/29 02:50:44;;;;;;;12.45;2.75;;;;;;;7.50;100.00;100624.56;4898665;29;20036;-91
2022/11/29 02:53:39;;;;;;;6.65;2.38;;;;;;;7.51;100.00;100634.13;4907995;29;20054;-95
2022/11/29 02:56:12;;;;;;;9.98;3.25;;;;;;;7.50;100.00;100625.38;4894345;29;20361;-91
2022/11/29 02:58:54;;;;;;;7.03;2.13;;;;;;;7.48;100.00;100627.31;4892336;29;20030;-90
2022/11/29 03:01:34;;;;;;;7.93;2.47;;;;;;;7.43;100.00;100627.69;4904112;29;20476;-95
2022/11/29 03:04:30;;;;;;;16.65;2.88;;;;;;;7.44;100.00;100633.75;4910334;29;20027;-95
2022/11/29 03:07:07;;;;;;;16.50;2.03;;;;;;;7.39;100.00;100622.78;4892385;29;20075;-90
2022/11/29 03:09:59;;;;;;;7.15;2.42;;;;;;;7.37;100.00;100619.41;4910491;29;20031;-91
2022/11/29 03:12:31;;;;;;;8.27;2.63;;;;;;;7.37;100.00;100628.16;4904411;29;20035;-90
2022/11/29 03:15:16;;;;;;;8.35;2.55;;;;;;;7.34;100.00;100624.91;4888113;29;20105;-90
2022/11/29 03:18:02;;;;;;;8.07;2.92;;;;;;;7.31;100.00;100631.25;4902944;29;20043;-89
2022/11/29 03:20:57;;;;;;;8.15;3.28;;;;;;;7.24;100.00;100635.31;4907358;29;20078;-90
2022/11/29 03:23:28;;;;;;;9.77;2.83;;;;;;;7.18;100.00;100628.72;4912536;29;20115;-90
2022/11/29 03:26:18;;;;;;;12.23;2.95;;;;;;;7.23;100.00;100615.22;4885291;29;20039;-90
2022/11/29 03:29:13;;;;;;;9.52;2.58;;;;;;;7.27;100.00;100616.66;4895144;29;20047;-90
2022/11/29 03:31:52;;;;;;;12.70;3.42;;;;;;;7.29;100.00;100620.03;4919152;29;20035;-90
2022/11/29 03:34:24;;;;;;;6.20;2.47;;;;;;;7.30;100.00;100627.78;4900962;29;20031;-90
2022/11/29 03:37:06;;;;;;;12.02;2.58;;;;;;;7.29;100.00;100630.53;4915405;29;20063;-90
2022/11/29 03:39:51;;;;;;;9.57;2.58;;;;;;;7.28;100.00;100621.81;4886670;29;20119;-90
2022/11/29 03:42:36;;;;;;;11.88;2.65;;;;;;;7.32;100.00;100620.63;4915225;29;20035;-90
2022/11/29 03:45:19;;;;;;;10.55;2.25;;;;;;;7.32;100.00;100618.00;4902070;29;20452;-90
2022/11/29 03:47:57;;;;;;;8.38;2.60;;;;;;;7.28;100.00;100621.81;4896193;29;20071;-90
2022/11/29 03:50:34;;;;;;;5.85;2.40;;;;;;;7.16;100.00;100625.38;4924057;29;20087;-90
2022/11/29 03:53:20;;;;;;;12.10;2.53;;;;;;;7.18;100.00;100628.72;4898162;29;20067;-91
2022/11/29 03:56:02;;;;;;;15.65;3.13;;;;;;;7.21;100.00;100636.38;4902292;29;20037;-94
2022/11/29 03:58:52;;;;;;;9.98;2.38;;;;;;;7.22;100.00;100640.69;4925460;29;20440;-94
2022/11/29 04:01:22;;;;;;;7.53;2.53;;;;;;;7.26;100.00;100638.66;4881997;29;20044;-90
2022/11/29 04:03:51;;;;;;;11.25;2.10;;;;;;;7.29;100.00;100644.50;4906229;29;20035;-90
2022/11/29 04:06:34;;;;;;;11.65;2.25;;;;;;;7.32;100.00;100651.34;4915563;29;20055;-90
2022/11/29 04:09:14;;;;;;;12.30;3.08;;;;;;;7.27;100.00;100656.94;4883410;29;20036;-91
2022/11/29 04:12:03;;;;;;;15.38;2.88;;;;;;;7.25;100.00;100658.84;4893667;29;20130;-95
2022/11/29 04:14:45;;;;;;;8.20;2.25;;;;;;;7.27;100.00;100662.19;4906691;29;20032;-95
2022/11/29 04:17:51;;;;;;;8.30;2.17;;;;;;;7.27;100.00;100654.31;4907026;29;20035;-95
2022/11/29 04:20:47;;;;;;;5.60;2.10;;;;;;;7.30;100.00;100661.97;4904631;29;20054;-95
2022/11/29 04:24:12;;;;;;;5.20;2.13;;;;;;;7.25;100.00;100664.09;4892530;29;20047;-90
2022/11/29 04:27:08;;;;;;;6.30;2.08;;;;;;;7.27;100.00;100669.25;4806149;29;20045;-90
2022/11/29 04:29:37;;;;;;;7.35;2.00;;;;;;;7.26;100.00;100657.06;4888788;29;20126;-90
2022/11/29 04:32:42;;;;;;;9.07;2.55;;;;;;;7.29;100.00;100662.91;4881710;29;20434;-90
2022/11/29 04:35:20;;;;;;;;;;;;;;;7.20;100.00;100660.97;4896920;29;20051;-90
2022/11/29 04:38:09;;;;;;;6.47;2.28;;;;;;;7.23;100.00;100663.38;4899440;29;19958;-90
2022/11/29 04:41:00;;;;;;;9.13;2.35;;;;;;;7.22;100.00;100658.22;4887611;29;20031;-90
2022/11/29 04:43:41;;;;;;;4.43;1.70;;;;;;;7.19;100.00;100652.28;4919887;29;20499;-89
2022/11/29 04:46:12;;;;;;;5.00;1.50;;;;;;;7.18;100.00;100650.59;4898356;29;20497;-91
2022/11/29 04:49:33;;;;;;;6.90;2.00;;;;;;;7.14;100.00;100664.06;4897293;29;20135;-90
2022/11/29 04:52:32;;;;;;;9.20;2.30;;;;;;;7.11;100.00;100664.31;4867752;29;20067;-90
2022/11/29 04:55:04;;;;;;;10.38;2.20;;;;;;;7.04;100.00;100661.31;4903072;29;20135;-90
2022/11/29 04:57:46;;;;;;;9.20;1.75;;;;;;;7.01;100.00;100653.66;4902244;29;20044;-95
2022/11/29 05:00:20;;;;;;;5.15;1.75;;;;;;;6.95;100.00;100660.22;4912481;29;20070;-95
2022/11/29 05:03:04;;;;;;;11.38;1.60;;;;;;;6.91;100.00;100661.41;4906017;29;20047;-90
2022/11/29 05:05:54;;;;;;;4.55;1.67;;;;;;;6.86;100.00;100659.13;4909982;29;20070;-91
2022/11/29 05:08:33;;;;;;;5.57;1.77;;;;;;;6.77;100.00;100655.38;4903510;29;20091;-90
2022/11/29 05:11:27;;;;;;;7.60;2.28;;;;;;;6.79;100.00;100669.25;4889184;29;20138;-90
2022/11/29 05:14:34;;;;;;;7.07;2.03;;;;;;;6.80;100.00;100665.66;4925918;29;20388;-90
2022/11/29 05:17:27;;;;;;;4.70;1.70;;;;;;;6.77;100.00;100660.63;4913438;29;20427;-90
2022/11/29 05:20:09;;;;;;;2.97;1.55;;;;;;;6.73;100.00;100660.97;4905024;29;20039;-91
2022/11/29 05:22:52;;;;;;;5.55;1.83;;;;;;;6.65;100.00;100677.31;4903480;29;20182;-90
2022/11/29 05:25:57;;;;;;;6.00;1.60;;;;;;;6.58;100.00;100683.00;4904043;29;20506;-90
2022/11/29 05:28:45;;;;;;;12.50;1.65;;;;;;;6.42;100.00;100688.53;4917806;29;20077;-90
2022/11/29 05:31:47;;;;;;;9.50;2.05;;;;;;;6.39;100.00;100687.91;4891041;29;20044;-90
2022/11/29 05:34:31;;;;;;;2.42;1.48;;;;;;;6.41;100.00;100686.03;4912745;29;20114;-90
2022/11/29 05:37:22;;;;;;;5.95;2.40;;;;;;;6.31;100.00;100689.31;4902738;29;20173;-95
2022/11/29 05:40:24;;;;;;;11.65;2.58;;;;;;;6.11;100.00;100677.63;4911344;29;20099;-95
2022/11/29 05:43:09;;;;;;;5.22;1.42;;;;;;;6.02;100.00;100668.56;4877291;29;20107;-95
2022/11/29 05:45:57;;;;;;;8.32;2.13;;;;;;;5.99;100.00;100667.97;4909426;29;20039;-94
2022/11/29 05:48:44;;;;;;;4.80;1.63;;;;;;;5.94;100.00;100670.94;4899555;29;20059;-90
2022/11/29 05:51:22;;;;;;;4.30;1.52;;;;;;;5.91;100.00;100679.00;4895998;29;20039;-90
2022/11/29 05:54:04;;;;;;;7.57;2.20;;;;;;;5.83;100.00;100697.88;4890996;29;20144;-91
2022/11/29 05:56:51;;;;;;;6.22;1.50;;;;;;;5.75;100.00;100700.22;4892778;29;20488;-90
2022/11/29 05:59:23;;;;;;;9.13;1.73;;;;;;;5.73;100.00;100691.63;4901408;29;20051;-90
2022/11/29 06:02:28;;;;;;;6.53;2.15;;;;;;;5.77;100.00;100688.69;4915053;29;20044;-91
2022/11/29 06:05:17;;;;;;;4.80;2.05;;;;;;;5.80;100.00;100704.19;4901045;29;20044;-90
2022/11/29 06:08:12;;;;;;;5.60;2.20;;;;;;;5.69;100.00;100704.09;4902832;29;20048;-91
2022/11/29 06:10:56;;;;;;;3.92;1.65;;;;;;;5.54;100.00;100701.59;4915001;29;20235;-90
2022/11/29 06:13:53;;;;;;;7.18;1.83;;;;;;;5.43;100.00;100710.19;4917518;29;20035;-90
2022/11/29 06:16:41;;;;;;;7.47;1.63;;;;;;;5.38;100.00;100716.69;4914714;29;20043;-90
2022/11/29 06:19:32;;;;;;;8.93;2.05;;;;;;;5.38;100.00;100716.69;4910919;29;20031;-90
2022/11/29 06:22:23;;;;;;;6.00;1.77;;;;;;;5.39;100.00;100723.59;4894303;29;20039;-95
2022/11/29 06:25:09;;;;;;;6.47;1.95;;;;;;;5.38;100.00;100721.94;4925245;29;20118;-95
2022/11/29 06:27:51;;;;;;;4.10;1.63;;;;;;;5.22;100.00;100729.03;4895775;29;20028;-94
2022/11/29 06:30:28;;;;;;;3.67;1.42;;;;;;;5.20;100.00;100730.09;4913990;29;20039;-94
2022/11/29 06:33:26;;;;;;;4.60;1.65;;;;;;;5.23;100.00;100727.25;4916333;29;20039;-90
2022/11/29 06:36:27;;;;;;;6.65;1.70;;;;;;;5.12;100.00;100724.50;4908482;29;20048;-91
2022/11/29 06:38:56;;;;;;;4.25;1.25;;;;;;;5.11;100.00;100730.69;4913972;29;20043;-90
2022/11/29 06:41:24;;;;;;;4.22;1.70;;;;;;;5.11;100.00;100730.69;4903942;29;20035;-90
2022/11/29 06:43:52;;;;;;;8.27;1.58;;;;;;;5.15;100.00;100740.03;4917495;29;21628;-90
2022/11/29 06:46:23;;;;;;;6.25;1.50;;;;;;;5.19;100.00;100742.34;4887704;29;20042;-91
2022/11/29 06:49:02;;;;;;;5.00;1.63;;;;;;;5.17;100.00;100746.88;4926833;29;20377;-91
2022/11/29 06:52:03;;;;;;;5.97;2.22;;;;;;;5.16;100.00;100741.72;4902036;29;20050;-90
2022/11/29 06:54:38;;;;;;;3.97;1.48;;;;;;;5.12;100.00;100756.81;4906276;29;20064;-89
2022/11/29 06:57:28;;;;;;;3.05;1.27;;;;;;;5.08;100.00;100753.53;4904710;29;20047;-95
2022/11/29 07:00:15;;;;;;;4.80;1.30;;;;;;;5.04;100.00;100757.31;4906157;29;20038;-95
2022/11/29 07:03:26;;;;;;;4.75;1.38;;;;;;;5.02;100.00;100767.03;4901220;29;20114;-90
2022/11/29 07:05:57;;;;;;;7.15;1.58;;;;;;;5.02;100.00;100763.56;4899890;29;20055;-91
2022/11/29 07:08:27;;;;;;;3.60;1.30;;;;;;;5.03;100.00;100770.50;4903215;29;20035;-91
2022/11/29 07:10:58;;;;;;;2.50;1.10;;;;;;;5.05;100.00;100782.56;4901987;29;20066;-91
2022/11/29 07:13:28;;;;;;;8.07;0.90;;;;;;;5.10;100.00;100774.38;4901766;29;20035;-91
2022/11/29 07:16:21;;;;;;;2.47;1.05;;;;;;;5.12;100.00;100761.19;4909504;29;20040;-96
2022/11/29 07:19:03;;;;;;;6.70;1.10;;;;;;;5.15;100.00;100760.97;4916409;29;20477;-95
2022/11/29 07:22:02;;;;;;;3.65;1.10;;;;;;;5.14;100.00;100762.78;4917885;29;20055;-91
2022/11/29 07:24:50;;;;;;;2.63;1.23;;;;;;;5.15;100.00;100768.84;4902792;29;20481;-89
2022/11/29 07:27:29;;;;;;;3.97;1.38;;;;;;;5.17;100.00;100766.97;4901458;29;20032;-91
2022/11/29 07:30:11;;;;;;;4.78;1.20;;;;;;;5.21;100.00;100766.66;4915309;29;20039;-91
2022/11/29 07:33:00;;;;;;;2.80;1.20;;;;;;;5.24;100.00;100756.94;4911788;29;20114;-92
2022/11/29 07:35:49;;;;;;;7.53;1.73;;;;;;;5.28;100.00;100761.03;4912391;29;20051;-91
2022/11/29 07:38:49;;;;;;;6.63;1.83;;;;;;;5.29;100.00;100763.53;4899639;29;20491;-91
2022/11/29 07:41:33;;;;;;;5.18;1.70;;;;;;;5.33;100.00;100767.66;4909744;29;20039;-90
2022/11/29 07:44:35;;;;;;;4.70;2.53;;;;;;;5.37;100.00;100773.50;4906876;29;20072;-89
2022/11/29 07:47:05;;;;;;;8.05;2.05;;;;;;;5.40;100.00;100777.72;4921748;29;21157;-91
2022/11/29 07:49:35;;;;;;;5.75;1.73;;;;;;;5.37;100.00;100778.75;4913218;29;20039;-91
2022/11/29 07:52:05;;;;;;;3.58;1.40;;;;;;;5.36;100.00;100778.84;4889315;29;20130;-90
2022/11/29 07:54:34;;;;;;;6.38;1.80;;;;;;;5.29;100.00;100786.28;4907983;29;20146;-90
2022/11/29 07:57:04;;;;;;;5.63;1.27;;;;;;;5.16;100.00;100781.84;4901757;29;20047;-90
2022/11/29 07:59:33;;;;;;;2.50;1.42;;;;;;;5.14;100.00;100789.00;4911624;29;20027;-91
2022/11/29 08:02:01;;;;;;;3.65;1.35;;;;;;;5.06;100.00;100794.75;4902511;29;20031;-90
2022/11/29 08:04:31;;;;;;;3.67;1.40;;;;;;;5.06;100.00;100792.13;4901297;29;20042;-91
2022/11/29 08:07:01;;;;;;;7.72;1.75;;;;;;;5.07;100.00;100783.31;4905137;29;20090;-91
2022/11/29 08:09:30;;;;;;;3.10;1.23;;;;;;;5.10;100.00;100792.72;4914865;29;20028;-90
2022/11/29 08:11:57;;;;;;;3.90;1.60;;;;;;;5.11;100.00;100797.06;4902226;29;20032;-90
2022/11/29 08:14:32;;;;;;;2.97;1.30;;;;;;;5.14;100.00;100796.00;4924636;29;20491;-90
2022/11/29 08:17:02;;;;;;;4.80;1.50;;;;;;;5.13;100.00;100792.53;4901306;29;20044;-90
2022/11/29 08:19:32;;;;;;;4.93;1.23;;;;;;;5.14;100.00;100812.56;4921671;29;20061;-90
2022/11/29 08:22:02;;;;;;;4.75;1.13;;;;;;;5.16;100.00;100812.47;4898848;29;20123;-90
2022/11/29 08:24:32;;;;;;;8.82;1.40;;;;;;;5.16;100.00;100815.09;4921262;29;20028;-90
2022/11/29 08:27:02;;;;;;;4.95;1.60;;;;;;;5.13;100.00;100816.13;4888743;29;20031;-91
2022/11/29 08:29:31;;;;;;;5.25;1.65;;;;;;;5.14;100.00;100809.97;4884612;29;20078;-90
2022/11/29 08:32:02;;;;;;;2.88;1.30;;;;;;;5.11;100.00;100817.16;4901554;29;20468;-89
2022/11/29 08:34:31;;;;;;;3.15;1.90;;;;;;;5.07;100.00;100806.88;4889619;29;20039;-90
2022/11/29 08:37:01;;;;;;;3.03;1.20;;;;;;;5.04;100.00;100799.22;4919325;29;20047;-90
2022/11/29 08:39:31;;;;;;;6.90;1.30;;;;;;;5.05;100.00;100802.66;4893760;29;20044;-90
2022/11/29 08:42:01;;;;;;;4.45;1.80;;;;;;;5.05;100.00;100803.50;4932054;29;20588;-91
2022/11/29 08:44:31;;;;;;;2.95;1.58;;;;;;;5.08;100.00;100805.94;4918247;29;20130;-90
2022/11/29 08:50:02;;;;;;;4.53;1.52;;;;;;;5.06;100.00;100806.97;4919022;29;20499;-90
2022/11/29 08:55:30;;;;;;;4.13;1.42;;;;;;;5.15;100.00;100802.91;4932486;29;20071;-90
2022/11/29 08:58:06;;;;;;;2.88;1.33;;;;;;;5.20;100.00;100809.56;4917762;29;20110;-89
2022/11/29 09:00:38;;;;;;;5.53;1.40;;;;;;;5.26;100.00;100805.69;4916379;29;20028;-90
2022/11/29 09:05:58;;;;;;;3.50;1.52;;;;;;;5.36;100.00;100813.78;4909525;29;20043;-89
2022/11/29 09:08:28;;;;;;;5.63;1.70;;;;;;;5.40;100.00;100804.75;4917599;29;20381;-90
2022/11/29 09:10:58;;;;;;;4.07;1.23;;;;;;;5.44;100.00;100802.78;4900238;29;20043;-95
2022/11/29 09:13:28;;;;;;;4.07;1.60;;;;;;;5.46;100.00;100814.03;4901411;29;20041;-95
2022/11/29 09:15:58;;;;;;;5.07;1.40;;;;;;;5.51;100.00;100806.66;4885396;29;20488;-95
2022/11/29 09:18:27;;;;;;;5.88;1.55;;;;;;;5.57;100.00;100803.63;4901944;29;20654;-95
2022/11/29 09:20:58;;;;;;;3.45;1.73;;;;;;;5.64;100.00;100811.13;4900212;29;20055;-90
2022/11/29 09:23:28;;;;;;;4.22;1.38;;;;;;;5.68;100.00;100809.97;4900732;29;20043;-90
2022/11/29 09:25:58;;;;;;;5.13;1.50;;;;;;;5.70;100.00;100808.09;4926709;29;20476;-90
2022/11/29 09:28:28;;;;;;;7.63;1.52;;;;;;;5.76;100.00;100804.19;4897152;29;20071;-90
2022/11/29 09:31:08;;;;;;;6.53;2.05;;;;;;;5.81;100.00;100799.47;4901063;29;20063;-90
2022/11/29 09:33:39;;;;;;;8.52;2.00;;;;;;;5.86;100.00;100799.16;4907842;29;20039;-90
2022/11/29 09:36:10;;;;;;;3.38;1.70;;;;;;;5.91;100.00;100797.91;4934652;28;20055;-90
2022/11/29 09:38:40;;;;;;;5.05;2.00;;;;;;;5.96;100.00;100805.44;4903586;29;20473;-90
2022/11/29 09:41:13;;;;;;;4.55;1.80;;;;;;;6.00;100.00;100803.47;4904339;29;20032;-90
2022/11/29 09:44:17;;;;;;;5.38;2.28;;;;;;;6.02;100.00;100791.09;4904022;29;20031;-89
2022/11/29 09:46:53;;;;;;;4.28;1.67;;;;;;;6.04;100.00;100791.81;4918722;29;20076;-90
2022/11/29 09:49:55;;;;;;;7.45;2.10;;;;;;;6.05;100.00;100798.78;4877929;29;20047;-90
2022/11/29 09:52:43;;;;;;;6.45;2.50;;;;;;;6.10;100.00;100793.22;4907370;29;20035;-91
2022/11/29 09:55:49;;;;;;;9.73;2.47;;;;;;;6.16;100.00;100798.03;4912341;29;20036;-90
2022/11/29 09:58:25;;;;;;;6.32;2.50;;;;;;;6.23;100.00;100801.91;4901730;29;20039;-90
2022/11/29 10:00:59;;;;;;;;;;;;;;;6.20;100.00;100800.34;4906646;29;20511;-90
2022/11/29 10:03:40;;;;;;;6.00;2.70;;;;;;;6.30;100.00;100799.69;4902024;29;19918;-90
2022/11/29 10:06:19;;;;;;;9.90;3.35;;;;;;;6.35;100.00;100800.22;4903740;29;20039;-90
2022/11/29 10:09:04;;;;;;;6.07;2.42;;;;;;;6.40;100.00;100815.66;4897536;29;20066;-90
2022/11/29 10:11:51;;;;;;;8.60;2.92;;;;;;;6.41;100.00;100812.91;4876983;29;20053;-91
2022/11/29 10:14:25;;;;;;;14.95;3.28;;;;;;;6.44;100.00;100801.34;4894396;29;20076;-90
2022/11/29 10:17:02;;;;;;;4.95;2.92;;;;;;;6.45;100.00;100801.22;4906357;29;20043;-90
2022/11/29 10:20:19;;;;;;;12.73;3.50;;;;;;;6.47;100.00;100801.13;4918272;29;20040;-90
2022/11/29 10:22:55;;;;;;;9.40;3.60;;;;;;;6.52;100.00;100798.16;4902647;29;20039;-91
2022/11/29 10:25:37;;;;;;;;;;;;;;;6.50;100.00;100803.53;4902121;29;20043;-90
2022/11/29 10:28:14;;;;;;;7.22;3.15;;;;;;;6.58;100.00;100793.31;4933749;29;19937;-90
2022/11/29 10:30:44;;;;;;;15.52;3.50;;;;;;;6.65;100.00;100791.09;4923092;29;20039;-90
2022/11/29 10:33:21;;;;;;;4.30;2.28;;;;;;;6.69;100.00;100797.81;4904023;29;20445;-90
2022/11/29 10:35:56;;;;;;;11.93;2.92;;;;;;;6.78;100.00;100804.19;4888655;29;20055;-90
2022/11/29 10:38:26;;;;;;;9.07;3.03;;;;;;;6.80;100.00;100797.03;4922739;29;20518;-90
2022/11/29 10:41:19;;;;;;;13.15;3.38;;;;;;;6.89;100.00;100789.44;4908269;29;20042;-95
2022/11/29 10:43:49;;;;;;;14.18;3.55;;;;;;;6.90;100.00;100780.59;4906553;29;20047;-95
2022/11/29 10:46:32;;;;;;;19.20;4.20;;;;;;;6.90;100.00;100786.69;4901133;29;20573;-90
2022/11/29 10:49:07;;;;;;;14.88;7.88;;;;;;;6.91;100.00;100783.09;4885707;29;20040;-90
2022/11/29 10:51:37;;;;;;;21.00;8.00;;;;;;;6.90;100.00;100775.34;4924665;29;20869;-90
2022/11/29 10:54:29;;;;;;;16.92;4.22;;;;;;;6.88;100.00;100777.25;4911420;29;20042;-90
2022/11/29 10:57:01;;;;;;;9.35;2.92;;;;;;;6.86;100.00;100773.91;4904535;29;20039;-95
2022/11/29 10:59:32;;;;;;;9.77;2.83;;;;;;;6.91;100.00;100777.03;4902386;29;20032;-96
2022/11/29 11:02:03;;;;;;;10.07;3.58;;;;;;;6.93;100.00;100772.47;4917802;29;20042;-90
2022/11/29 11:04:43;;;;;;;9.52;3.22;;;;;;;6.98;100.00;100766.88;4901493;29;20031;-90
2022/11/29 11:07:26;;;;;;;12.02;3.22;;;;;;;6.99;100.00;100761.50;4901490;29;20042;-95
2022/11/29 11:09:57;;;;;;;9.73;2.03;;;;;;;7.01;100.00;100762.25;4904875;29;20646;-96
2022/11/29 11:12:30;;;;;;;5.75;1.52;;;;;;;7.00;100.00;100768.47;4892710;29;20046;-96
2022/11/29 11:15:28;;;;;;;5.82;1.65;;;;;;;7.00;100.00;100768.47;4905994;29;21741;-96
2022/11/29 11:18:06;;;;;;;7.10;1.60;;;;;;;7.11;100.00;100764.19;4905028;29;20105;-90
2022/11/29 11:20:40;;;;;;;5.30;1.30;;;;;;;7.23;100.00;100762.47;4930859;29;20027;-90
2022/11/29 11:23:24;;;;;;;14.48;2.13;;;;;;;7.27;100.00;100748.97;4888660;29;20041;-91
2022/11/29 11:26:04;;;;;;;4.05;2.17;;;;;;;7.29;100.00;100743.59;4890931;29;20043;-90
2022/11/29 11:28:52;;;;;;;7.45;1.65;;;;;;;7.35;100.00;100751.03;4916349;29;20043;-91
2022/11/29 11:31:34;;;;;;;8.50;1.73;;;;;;;7.35;100.00;100737.88;4889943;29;20031;-91
2022/11/29 11:34:26;;;;;;;10.93;1.83;;;;;;;7.40;100.00;100729.63;4912612;29;20042;-90
2022/11/29 11:37:15;;;;;;;5.53;1.60;;;;;;;7.48;100.00;100737.78;4901769;29;20055;-90
2022/11/29 11:39:47;;;;;;;7.93;1.85;;;;;;;7.53;100.00;100735.63;4910904;29;20048;-90
2022/11/29 11:42:37;;;;;;;6.20;1.70;;;;;;;7.62;100.00;100741.13;4900260;29;20028;-95
2022/11/29 11:45:10;;;;;;;4.88;1.58;;;;;;;7.71;100.00;100739.63;4909217;29;20048;-95
2022/11/29 11:47:47;;;;;;;4.63;1.30;;;;;;;7.77;100.00;100736.50;4904035;29;20046;-90
2022/11/29 11:50:30;;;;;;;5.80;1.38;;;;;;;7.81;100.00;100732.66;4909684;29;20050;-90
2022/11/29 11:53:39;;;;;;;5.00;1.58;;;;;;;7.81;100.00;100728.25;4907193;29;20408;-95
2022/11/29 11:56:12;;;;;;;9.38;1.30;;;;;;;7.85;100.00;100730.66;4896287;29;20035;-95
2022/11/29 11:58:57;;;;;;;8.10;1.92;;;;;;;7.90;100.00;100728.50;4921150;29;20036;-95
2022/11/29 12:01:37;;;;;;;7.93;1.25;;;;;;;7.92;100.00;100737.94;4884581;29;20122;-90
2022/11/29 12:04:07;;;;;;;6.03;1.33;;;;;;;7.91;100.00;100728.38;4917054;29;20043;-90
2022/11/29 12:06:51;;;;;;;4.38;1.67;;;;;;;7.91;100.00;100722.28;4903093;29;20122;-91
2022/11/29 12:09:41;;;;;;;6.95;1.20;;;;;;;7.91;100.00;100724.91;4891580;29;20106;-90
2022/11/29 12:12:17;;;;;;;4.43;1.42;;;;;;;7.96;100.00;100714.84;4923788;29;20090;-90
2022/11/29 12:14:59;;;;;;;;;;;;;;;7.89;100.00;100717.13;4900644;29;20070;-90
2022/11/29 12:17:50;;;;;;;4.65;1.20;;;;;;;7.97;100.00;100715.69;4894044;29;20339;-90
2022/11/29 12:20:29;;;;;;;8.70;1.33;;;;;;;7.99;100.00;100711.13;4917718;29;20131;-90
2022/11/29 12:23:14;;;;;;;5.82;1.42;;;;;;;8.01;100.00;100711.88;4895468;29;20040;-95
2022/11/29 12:25:58;;;;;;;6.57;1.08;;;;;;;7.97;100.00;100706.00;4901244;29;20050;-95
2022/11/29 12:28:32;;;;;;;2.92;0.60;;;;;;;7.94;100.00;100712.34;4910862;29;20040;-91
2022/11/29 12:31:04;;;;;;;6.15;0.50;;;;;;;7.92;100.00;100710.78;4901008;29;20044;-90
2022/11/29 12:33:48;;;;;;;2.55;1.35;;;;;;;7.94;100.00;100704.44;4907536;29;20032;-90